createdAt,value
2018-02-09T00:00:04.126Z,-3.20
2018-02-09T00:02:31.647Z,-3.20
2018-02-09T00:04:59.141Z,-3.20
2018-02-09T00:07:26.657Z,-3.10
2018-02-09T00:09:54.168Z,-3.10
2018-02-09T00:12:21.691Z,-2.90
2018-02-09T00:14:49.189Z,-3.10
2018-02-09T00:17:17.482Z,-3.10
2018-02-09T00:19:44.981Z,-3.10
2018-02-09T00:22:13.279Z,-3.00
2018-02-09T00:24:40.806Z,-3.00
2018-02-09T00:27:08.324Z,-2.90
2018-02-09T00:29:36.627Z,-2.80
2018-02-09T00:32:04.135Z,-2.80
2018-02-09T00:34:31.672Z,-2.80
2018-02-09T00:36:59.194Z,-2.80
2018-02-09T00:39:26.737Z,-2.80
2018-02-09T00:41:55.045Z,-2.90
2018-02-09T00:44:22.575Z,-2.90
2018-02-09T00:46:50.852Z,-3.10
2018-02-09T00:49:19.149Z,-3.20
2018-02-09T00:51:46.667Z,-3.20
2018-02-09T00:54:14.189Z,-3.20
2018-02-09T00:56:41.711Z,-3.20
2018-02-09T00:59:10.017Z,-3.60
2018-02-09T01:01:37.521Z,-3.60
2018-02-09T01:04:05.048Z,-3.40
2018-02-09T01:06:32.568Z,-3.50
2018-02-09T01:09:00.095Z,-3.30
2018-02-09T01:11:28.376Z,-3.20
2018-02-09T01:13:56.688Z,-3.10
2018-02-09T01:16:24.193Z,-3.10
2018-02-09T01:18:51.715Z,-3.30
2018-02-09T01:21:19.261Z,-3.30
2018-02-09T01:23:46.761Z,-3.20
2018-02-09T01:26:14.263Z,-3.20
2018-02-09T01:28:41.816Z,-3.40
2018-02-09T01:31:10.101Z,-3.20
2018-02-09T01:33:37.625Z,-3.20
2018-02-09T01:36:05.172Z,-3.20
2018-02-09T01:38:32.696Z,-3.40
2018-02-09T01:41:00.216Z,-3.30
2018-02-09T01:43:28.523Z,-3.50
2018-02-09T01:45:56.039Z,-3.50
2018-02-09T01:48:23.564Z,-3.40
2018-02-09T01:50:51.106Z,-3.40
2018-02-09T01:53:18.666Z,-3.40
2018-02-09T01:55:46.172Z,-3.40
2018-02-09T01:58:13.725Z,-3.50
2018-02-09T02:00:41.253Z,-3.50
2018-02-09T02:03:08.780Z,-4.20
2018-02-09T02:05:36.324Z,-4.60
2018-02-09T02:08:04.602Z,-4.50
2018-02-09T02:10:32.883Z,-4.40
2018-02-09T02:13:01.200Z,-4.20
2018-02-09T02:15:28.702Z,-4.20
2018-02-09T02:17:56.982Z,-4.00
2018-02-09T02:20:25.290Z,-4.10
2018-02-09T02:22:52.809Z,-4.10
2018-02-09T02:25:20.328Z,-3.90
2018-02-09T02:27:47.875Z,-4.00
2018-02-09T02:30:15.380Z,-4.00
2018-02-09T02:32:42.900Z,-3.80
2018-02-09T02:35:10.428Z,-3.90
2018-02-09T02:37:38.690Z,-3.90
2018-02-09T02:40:06.964Z,-3.80
2018-02-09T02:42:35.277Z,-4.00
2018-02-09T02:45:02.787Z,-4.00
2018-02-09T02:47:31.091Z,-4.20
2018-02-09T02:49:59.377Z,-4.00
2018-02-09T02:52:26.882Z,-4.00
2018-02-09T02:54:54.397Z,-4.00
2018-02-09T02:57:21.929Z,-4.00
2018-02-09T02:59:50.198Z,-3.80
2018-02-09T03:02:17.707Z,-3.90
2018-02-09T03:04:45.252Z,-3.90
2018-02-09T03:07:12.761Z,-3.80
2018-02-09T03:09:40.271Z,-3.80
2018-02-09T03:12:07.798Z,-4.10
2018-02-09T03:14:36.076Z,-3.90
2018-02-09T03:17:04.363Z,-4.00
2018-02-09T03:19:31.907Z,-4.00
2018-02-09T03:22:00.190Z,-3.80
2018-02-09T03:24:28.465Z,-3.90
2018-02-09T03:26:56.772Z,-3.90
2018-02-09T03:29:24.274Z,-3.90
2018-02-09T03:31:51.776Z,-4.00
2018-02-09T03:34:19.302Z,-3.90
2018-02-09T03:36:46.831Z,-3.70
2018-02-09T03:39:14.334Z,-3.70
2018-02-09T03:41:42.640Z,-4.00
2018-02-09T03:44:10.156Z,-4.00
2018-02-09T03:46:37.663Z,-4.20
2018-02-09T03:49:05.186Z,-4.20
2018-02-09T03:51:33.458Z,-4.30
2018-02-09T03:54:01.736Z,-4.20
2018-02-09T03:56:30.049Z,-4.10
2018-02-09T03:58:57.579Z,-4.10
2018-02-09T04:01:25.865Z,-4.10
2018-02-09T04:03:53.421Z,-4.10
2018-02-09T04:06:21.694Z,-4.30
2018-02-09T04:08:49.964Z,-4.30
2018-02-09T04:11:18.263Z,-4.40
2018-02-09T04:13:45.775Z,-4.40
2018-02-09T04:16:13.308Z,-4.10
2018-02-09T04:18:40.846Z,-4.00
2018-02-09T04:21:08.360Z,-4.20
2018-02-09T04:23:35.866Z,-4.50
2018-02-09T04:26:03.398Z,-4.50
2018-02-09T04:28:31.669Z,-4.20
2018-02-09T04:30:59.939Z,-4.30
2018-02-09T04:33:28.259Z,-4.30
2018-02-09T04:35:55.757Z,-4.20
2018-02-09T04:38:23.273Z,-4.30
2018-02-09T04:40:50.816Z,-4.50
2018-02-09T04:43:18.335Z,-4.40
2018-02-09T04:45:45.851Z,-4.20
2018-02-09T04:48:13.386Z,-4.20
2018-02-09T04:50:40.886Z,-4.10
2018-02-09T04:53:08.381Z,-4.30
2018-02-09T04:55:36.702Z,-4.30
2018-02-09T04:58:04.197Z,-4.30
2018-02-09T05:00:31.703Z,-4.30
2018-02-09T05:02:59.248Z,-4.30
2018-02-09T05:05:26.754Z,-4.20
2018-02-09T05:07:54.270Z,-4.30
2018-02-09T05:10:21.799Z,-4.40
2018-02-09T05:12:49.325Z,-4.40
2018-02-09T05:15:16.839Z,-4.50
2018-02-09T05:17:44.400Z,-4.50
2018-02-09T05:20:11.911Z,-4.40
2018-02-09T05:22:39.418Z,-4.10
2018-02-09T05:25:06.954Z,-4.10
2018-02-09T05:27:34.457Z,-4.10
2018-02-09T05:30:01.958Z,-4.50
2018-02-09T05:32:29.508Z,-4.60
2018-02-09T05:34:57.028Z,-4.70
2018-02-09T05:37:24.552Z,-4.80
2018-02-09T05:39:52.866Z,-4.40
2018-02-09T05:42:20.383Z,-4.40
2018-02-09T05:44:48.667Z,-4.40
2018-02-09T05:47:16.981Z,-4.50
2018-02-09T05:49:44.482Z,-4.60
2018-02-09T05:52:11.996Z,-4.60
2018-02-09T05:54:39.522Z,-4.40
2018-02-09T05:57:07.794Z,-4.90
2018-02-09T05:59:36.089Z,-4.90
2018-02-09T06:02:03.608Z,-4.80
2018-02-09T06:04:31.130Z,-4.80
2018-02-09T06:06:58.677Z,-4.70
2018-02-09T06:09:26.195Z,-4.80
2018-02-09T06:11:53.718Z,-4.70
2018-02-09T06:14:21.238Z,-4.50
2018-02-09T06:16:48.758Z,-4.50
2018-02-09T06:19:16.314Z,-4.50
2018-02-09T06:21:43.836Z,-4.60
2018-02-09T06:24:11.365Z,-4.40
2018-02-09T06:26:39.709Z,-4.50
2018-02-09T06:29:07.219Z,-4.50
2018-02-09T06:31:34.751Z,-4.50
2018-02-09T06:34:03.034Z,-4.20
2018-02-09T06:36:31.324Z,-4.20
2018-02-09T06:38:58.855Z,-4.20
2018-02-09T06:41:26.384Z,-4.10
2018-02-09T06:43:54.283Z,-4.00
2018-02-09T06:46:23.091Z,-3.70
2018-02-09T06:48:50.632Z,-3.80
2018-02-09T06:51:18.921Z,-3.50
2018-02-09T06:53:47.209Z,-3.50
2018-02-09T06:56:14.745Z,-3.50
2018-02-09T06:58:43.023Z,-3.20
2018-02-09T07:01:11.300Z,-3.20
2018-02-09T07:03:39.595Z,-3.00
2018-02-09T07:06:07.125Z,-3.10
2018-02-09T07:08:34.649Z,-3.00
2018-02-09T07:11:02.936Z,-2.90
2018-02-09T07:13:30.464Z,-2.90
2018-02-09T07:15:57.992Z,-2.90
2018-02-09T07:18:26.277Z,-2.70
2018-02-09T07:20:53.779Z,-2.80
2018-02-09T07:23:21.318Z,-2.70
2018-02-09T07:25:48.855Z,-2.70
2018-02-09T07:28:16.383Z,-2.60
2018-02-09T07:30:43.914Z,-2.60
2018-02-09T07:33:11.433Z,-2.60
2018-02-09T07:35:38.949Z,-2.50
2018-02-09T07:38:06.472Z,-2.50
2018-02-09T07:40:34.012Z,-2.50
2018-02-09T07:43:01.527Z,-2.50
2018-02-09T07:45:29.037Z,-2.50
2018-02-09T07:47:56.572Z,-2.40
2018-02-09T07:50:24.851Z,-2.30
2018-02-09T07:52:52.401Z,-2.40
2018-02-09T07:55:20.680Z,-2.10
2018-02-09T07:57:48.964Z,-2.00
2018-02-09T08:00:17.278Z,-2.00
2018-02-09T08:02:44.804Z,-2.00
2018-02-09T08:05:12.318Z,-1.90
2018-02-09T08:07:39.867Z,-1.80
2018-02-09T08:10:07.379Z,-1.80
2018-02-09T08:12:34.901Z,-1.80
2018-02-09T08:15:02.430Z,-1.80
2018-02-09T08:17:29.936Z,-1.70
2018-02-09T08:19:58.225Z,-1.60
2018-02-09T08:22:26.514Z,-1.50
2018-02-09T08:24:54.041Z,-1.50
2018-02-09T08:27:22.310Z,-1.40
2018-02-09T08:29:49.840Z,-1.30
2018-02-09T08:32:17.405Z,-1.40
2018-02-09T08:34:45.717Z,-1.20
2018-02-09T08:37:14.005Z,-1.20
2018-02-09T08:39:42.298Z,-1.20
2018-02-09T08:42:09.822Z,-1.20
2018-02-09T08:44:37.349Z,-1.20
2018-02-09T08:47:04.902Z,-1.10
2018-02-09T08:49:32.432Z,-1.10
2018-02-09T08:51:59.976Z,-1.00
2018-02-09T08:54:28.262Z,-0.90
2018-02-09T08:56:55.788Z,-0.90
2018-02-09T08:59:23.370Z,-0.80
2018-02-09T09:01:50.846Z,-0.80
2018-02-09T09:04:18.369Z,-0.80
2018-02-09T09:06:46.670Z,-0.80
2018-02-09T09:09:14.179Z,-0.80
2018-02-09T09:11:41.682Z,-0.60
2018-02-09T09:14:09.218Z,-0.60
2018-02-09T09:16:36.749Z,-0.60
2018-02-09T09:19:04.274Z,-0.50
2018-02-09T09:21:31.786Z,-0.40
2018-02-09T09:23:59.323Z,-0.30
2018-02-09T09:26:26.848Z,-0.40
2018-02-09T09:28:54.397Z,-0.40
2018-02-09T09:31:21.925Z,-0.40
2018-02-09T09:33:49.442Z,-0.40
2018-02-09T09:36:16.985Z,-0.40
2018-02-09T09:38:44.517Z,-0.20
2018-02-09T09:41:12.803Z,0.20
2018-02-09T09:43:40.327Z,0.20
2018-02-09T09:46:07.840Z,0.40
2018-02-09T09:48:35.369Z,0.60
2018-02-09T09:51:03.648Z,0.90
2018-02-09T09:53:31.948Z,0.80
2018-02-09T09:55:59.455Z,0.80
2018-02-09T09:58:26.961Z,0.90
2018-02-09T10:00:54.491Z,0.90
2018-02-09T10:03:22.782Z,1.10
2018-02-09T10:05:50.310Z,1.10
2018-02-09T10:08:17.865Z,1.10
2018-02-09T10:10:45.381Z,1.20
2018-02-09T10:13:12.905Z,1.20
2018-02-09T10:15:41.200Z,1.50
2018-02-09T10:18:08.697Z,1.40
2018-02-09T10:20:36.199Z,1.60
2018-02-09T10:23:04.491Z,1.50
2018-02-09T10:25:32.016Z,1.60
2018-02-09T10:27:59.534Z,1.50
2018-02-09T10:30:27.100Z,1.70
2018-02-09T10:32:54.626Z,2.00
2018-02-09T10:35:22.145Z,2.00
2018-02-09T10:37:49.689Z,2.10
2018-02-09T10:40:17.189Z,1.70
2018-02-09T10:42:45.473Z,2.00
2018-02-09T10:45:13.011Z,2.00
2018-02-09T10:47:41.291Z,2.10
2018-02-09T10:50:09.555Z,2.30
2018-02-09T10:52:37.088Z,2.30
2018-02-09T10:55:04.602Z,2.50
2018-02-09T10:57:32.111Z,2.40
2018-02-09T10:59:59.653Z,2.50
2018-02-09T11:02:27.941Z,2.80
2018-02-09T11:04:55.439Z,2.80
2018-02-09T11:07:23.745Z,2.70
2018-02-09T11:09:51.246Z,2.70
2018-02-09T11:12:21.734Z,2.80
2018-02-09T11:14:49.276Z,2.90
2018-02-09T11:17:16.844Z,3.00
2018-02-09T11:19:45.090Z,2.90
2018-02-09T11:22:13.402Z,2.90
2018-02-09T11:24:40.922Z,2.90
2018-02-09T11:27:09.209Z,3.20
2018-02-09T11:29:37.498Z,3.20
2018-02-09T11:32:05.003Z,3.20
2018-02-09T11:34:32.498Z,3.30
2018-02-09T11:37:00.789Z,3.70
2018-02-09T11:39:28.287Z,3.70
2018-02-09T11:41:55.805Z,3.50
2018-02-09T11:44:23.354Z,3.20
2018-02-09T11:46:51.634Z,3.20
2018-02-09T11:49:19.161Z,3.20
2018-02-09T11:51:46.695Z,3.10
2018-02-09T11:54:14.972Z,3.20
2018-02-09T11:56:42.490Z,3.20
2018-02-09T11:59:10.036Z,3.10
2018-02-09T12:01:38.303Z,3.20
2018-02-09T12:04:05.809Z,3.20
2018-02-09T12:06:33.350Z,3.30
2018-02-09T12:09:00.850Z,3.20
2018-02-09T12:11:28.368Z,3.30
2018-02-09T12:13:55.898Z,3.30
2018-02-09T12:16:24.188Z,3.40
2018-02-09T12:18:52.454Z,3.60
2018-02-09T12:21:20.769Z,3.40
2018-02-09T12:23:48.280Z,3.30
2018-02-09T12:26:15.787Z,3.40
2018-02-09T12:28:43.313Z,3.20
2018-02-09T12:31:11.592Z,3.10
2018-02-09T12:33:39.858Z,3.00
2018-02-09T12:36:08.162Z,3.10
2018-02-09T12:38:35.689Z,3.10
2018-02-09T12:41:03.988Z,3.20
2018-02-09T12:43:31.498Z,3.20
2018-02-09T12:45:59.022Z,3.10
2018-02-09T12:48:26.531Z,3.20
2018-02-09T12:50:54.049Z,3.10
2018-02-09T12:53:21.578Z,3.10
2018-02-09T12:55:49.091Z,3.00
2018-02-09T12:58:16.594Z,3.10
2018-02-09T13:00:44.126Z,3.20
2018-02-09T13:03:11.639Z,3.10
2018-02-09T13:05:39.159Z,3.30
2018-02-09T13:08:07.460Z,3.20
2018-02-09T13:10:34.966Z,3.20
2018-02-09T13:13:06.115Z,3.30
2018-02-09T13:15:33.648Z,3.10
2018-02-09T13:18:01.143Z,3.10
2018-02-09T13:20:28.646Z,3.00
2018-02-09T13:26:03.180Z,3.00
2018-02-09T13:28:42.500Z,3.00
2018-02-09T13:31:10.799Z,2.60
2018-02-09T13:33:38.302Z,2.60
2018-02-09T13:36:05.845Z,2.60
2018-02-09T13:38:33.351Z,2.60
2018-02-09T13:41:01.628Z,2.80
2018-02-09T13:43:29.171Z,2.80
2018-02-09T13:45:57.438Z,2.80
2018-02-09T13:48:24.956Z,2.80
2018-02-09T13:50:52.479Z,2.60
2018-02-09T13:53:20.742Z,2.60
2018-02-09T13:55:49.008Z,2.60
2018-02-09T13:58:17.320Z,2.50
2018-02-09T14:00:44.826Z,2.50
2018-02-09T14:03:12.345Z,2.50
2018-02-09T14:05:39.878Z,2.30
2018-02-09T14:08:08.162Z,2.20
2018-02-09T14:10:35.685Z,2.20
2018-02-09T14:13:03.233Z,2.10
2018-02-09T14:15:30.749Z,2.00
2018-02-09T14:17:58.268Z,2.10
2018-02-09T14:20:25.817Z,2.20
2018-02-09T14:22:53.341Z,2.10
2018-02-09T14:25:20.861Z,2.10
2018-02-09T14:27:49.171Z,1.90
2018-02-09T14:30:16.670Z,1.90
2018-02-09T14:32:44.180Z,1.90
2018-02-09T14:35:11.724Z,1.90
2018-02-09T14:37:40.003Z,1.90
2018-02-09T14:40:07.529Z,1.80
2018-02-09T14:42:35.059Z,1.90
2018-02-09T14:45:02.569Z,1.80
2018-02-09T14:47:30.854Z,1.60
2018-02-09T14:49:58.378Z,1.60
2018-02-09T14:52:25.905Z,1.50
2018-02-09T14:54:53.437Z,1.60
2018-02-09T14:57:20.988Z,1.50
2018-02-09T14:59:48.509Z,1.50
2018-02-09T15:02:16.009Z,1.40
2018-02-09T15:04:43.555Z,1.30
2018-02-09T15:07:11.832Z,1.30
2018-02-09T15:09:40.117Z,1.10
2018-02-09T15:12:07.648Z,1.10
2018-02-09T15:14:35.918Z,1.10
2018-02-09T15:17:03.418Z,1.00
2018-02-09T15:19:30.942Z,0.90
2018-02-09T15:21:58.439Z,0.90
2018-02-09T15:24:25.964Z,0.80
2018-02-09T15:26:54.281Z,0.80
2018-02-09T15:29:21.796Z,0.80
2018-02-09T15:31:50.067Z,0.70
2018-02-09T15:34:17.633Z,0.70
2018-02-09T15:36:45.121Z,0.70
2018-02-09T15:39:12.622Z,0.70
2018-02-09T15:41:40.151Z,0.60
2018-02-09T15:44:07.661Z,0.70
2018-02-09T15:46:35.168Z,0.60
2018-02-09T15:49:02.703Z,0.60
2018-02-09T15:51:30.224Z,0.60
2018-02-09T15:53:57.725Z,0.60
2018-02-09T15:56:25.260Z,0.60
2018-02-09T15:58:53.544Z,0.50
2018-02-09T16:01:21.810Z,0.50
2018-02-09T16:03:50.126Z,0.40
2018-02-09T16:06:17.625Z,0.40
2018-02-09T16:08:45.133Z,0.40
2018-02-09T16:11:12.675Z,0.40
2018-02-09T16:13:40.941Z,0.30
2018-02-09T16:16:09.229Z,0.30
2018-02-09T16:18:37.547Z,0.20
2018-02-09T16:21:05.059Z,0.20
2018-02-09T16:23:33.344Z,0.20
2018-02-09T16:26:00.895Z,0.20
2018-02-09T16:28:29.170Z,0.20
2018-02-09T16:30:57.442Z,0.10
2018-02-09T16:33:25.739Z,0.10
2018-02-09T16:35:53.259Z,0.10
2018-02-09T16:38:20.778Z,0.10
2018-02-09T16:40:48.307Z,0.10
2018-02-09T16:43:16.572Z,0.10
2018-02-09T16:45:44.099Z,0.10
2018-02-09T16:48:11.635Z,0.10
2018-02-09T16:50:39.172Z,0.00
2018-02-09T16:53:06.695Z,0.00
2018-02-09T16:55:34.232Z,0.00
2018-02-09T16:58:01.751Z,0.00
2018-02-09T17:00:29.263Z,0.10
2018-02-09T17:02:56.781Z,0.00
2018-02-09T17:05:24.303Z,0.10
2018-02-09T17:07:52.587Z,-0.10
2018-02-09T17:10:20.908Z,-0.20
2018-02-09T17:12:48.512Z,-0.20
2018-02-09T17:15:16.804Z,-0.10
2018-02-09T17:17:45.304Z,0.00
2018-02-09T17:20:12.814Z,0.00
2018-02-09T17:22:40.341Z,-0.10
2018-02-09T17:25:07.902Z,-0.10
2018-02-09T17:27:35.416Z,-0.10
2018-02-09T17:30:03.699Z,-0.10
2018-02-09T17:32:31.240Z,-0.10
2018-02-09T17:34:59.553Z,-0.10
2018-02-09T17:37:27.075Z,-0.10
2018-02-09T17:39:55.380Z,-0.40
2018-02-09T17:42:22.881Z,-0.40
2018-02-09T17:44:50.401Z,-0.30
2018-02-09T17:47:17.930Z,-0.20
2018-02-09T17:49:46.225Z,-0.40
2018-02-09T17:52:13.753Z,-0.40
2018-02-09T17:54:41.326Z,-0.40
2018-02-09T17:57:09.616Z,-0.40
2018-02-09T17:59:37.135Z,-0.40
2018-02-09T18:02:04.668Z,-0.40
2018-02-09T18:04:32.182Z,-0.40
2018-02-09T18:07:00.470Z,-0.40
2018-02-09T18:09:28.024Z,-0.50
2018-02-09T18:11:56.312Z,-0.20
2018-02-09T18:14:23.818Z,-0.20
2018-02-09T18:16:51.393Z,-0.30
2018-02-09T18:19:18.915Z,-0.30
2018-02-09T18:21:46.422Z,-0.30
2018-02-09T18:24:14.726Z,-0.20
2018-02-09T18:26:42.240Z,-0.20
2018-02-09T18:29:09.746Z,-0.20
2018-02-09T18:31:37.279Z,-0.20
2018-02-09T18:34:04.820Z,-0.20
2018-02-09T18:36:32.327Z,-0.20
2018-02-09T18:38:59.931Z,-0.20
2018-02-09T18:41:27.426Z,-0.10
2018-02-09T18:43:54.969Z,-0.10
2018-02-09T18:46:23.277Z,-0.10
2018-02-09T18:48:50.788Z,-0.10
2018-02-09T18:51:18.292Z,-0.10
2018-02-09T18:53:45.825Z,-0.10
2018-02-09T18:56:14.112Z,-0.10
2018-02-09T18:58:41.637Z,-0.20
2018-02-09T19:01:09.182Z,-0.20
2018-02-09T19:03:36.686Z,-0.10
2018-02-09T19:06:04.194Z,-0.10
2018-02-09T19:08:31.727Z,-0.10
2018-02-09T19:10:59.249Z,-0.10
2018-02-09T19:13:27.543Z,-0.10
2018-02-09T19:15:55.084Z,-0.10
2018-02-09T19:18:23.360Z,-0.20
2018-02-09T19:20:51.645Z,-0.20
2018-02-09T19:23:19.204Z,-0.20
2018-02-09T19:25:47.470Z,-0.20
2018-02-09T19:28:15.748Z,-0.20
2018-02-09T19:30:44.057Z,-0.20
2018-02-09T19:33:11.613Z,-0.20
2018-02-09T19:35:39.120Z,-0.20
2018-02-09T19:38:06.658Z,-0.20
2018-02-09T19:40:34.167Z,-0.20
2018-02-09T19:43:02.435Z,-0.20
2018-02-09T19:45:30.815Z,-0.20
2018-02-09T19:47:58.289Z,-0.20
2018-02-09T19:50:25.798Z,-0.10
2018-02-09T19:52:53.325Z,-0.20
2018-02-09T19:55:20.846Z,-0.20
2018-02-09T19:57:49.132Z,-0.20
2018-02-09T20:00:17.425Z,-0.20
2018-02-09T20:02:44.935Z,-0.20
2018-02-09T20:05:12.460Z,-0.20
2018-02-09T20:07:40.016Z,-0.20
2018-02-09T20:10:07.522Z,-0.20
2018-02-09T20:12:35.045Z,-0.20
2018-02-09T20:15:02.588Z,-0.20
2018-02-09T20:17:30.093Z,-0.20
2018-02-09T20:19:57.688Z,-0.20
2018-02-09T20:22:25.240Z,-0.20
2018-02-09T20:24:52.750Z,-0.20
2018-02-09T20:27:20.252Z,-0.20
2018-02-09T20:29:48.567Z,-0.20
2018-02-09T20:32:16.090Z,-0.20
2018-02-09T20:34:43.599Z,-0.20
2018-02-09T20:37:11.149Z,-0.20
2018-02-09T20:39:38.654Z,-0.20
2018-02-09T20:42:06.932Z,-0.30
2018-02-09T20:44:35.257Z,-0.40
2018-02-09T20:47:02.763Z,-0.40
2018-02-09T20:49:31.049Z,-0.40
2018-02-09T20:51:59.363Z,-0.50
2018-02-09T20:54:26.865Z,-0.50
2018-02-09T20:56:54.393Z,-0.80
2018-02-09T20:59:21.939Z,-0.90
2018-02-09T21:01:49.460Z,-1.10
2018-02-09T21:04:17.761Z,-1.10
2018-02-09T21:06:45.270Z,-1.10
2018-02-09T21:09:12.833Z,-1.00
2018-02-09T21:11:40.357Z,-1.00
2018-02-09T21:14:08.636Z,-1.10
2018-02-09T21:16:36.145Z,-1.10
2018-02-09T21:19:04.423Z,-1.20
2018-02-09T21:21:32.709Z,-1.20
2018-02-09T21:24:00.227Z,-1.20
2018-02-09T21:26:27.736Z,-1.20
2018-02-09T21:28:55.263Z,-1.20
2018-02-09T21:31:23.544Z,-1.00
2018-02-09T21:33:51.844Z,-1.00
2018-02-09T21:36:19.353Z,-1.00
2018-02-09T21:38:46.900Z,-0.80
2018-02-09T21:41:14.431Z,-0.60
2018-02-09T21:43:41.978Z,-0.60
2018-02-09T21:46:09.512Z,-0.50
2018-02-09T21:48:37.782Z,-0.40
2018-02-09T21:51:06.086Z,-0.60
2018-02-09T21:53:33.596Z,-0.60
2018-02-09T21:56:01.131Z,-0.40
2018-02-09T21:58:28.636Z,-0.70
2018-02-09T22:00:56.910Z,-0.90
2018-02-09T22:03:25.225Z,-0.80
2018-02-09T22:05:52.749Z,-0.90
2018-02-09T22:08:21.052Z,-0.80
2018-02-09T22:10:48.570Z,-0.90
2018-02-09T22:13:16.097Z,-0.90
2018-02-09T22:15:43.628Z,-0.90
2018-02-09T22:18:11.152Z,-0.80
2018-02-09T22:20:38.696Z,-1.00
2018-02-09T22:23:06.208Z,-0.90
2018-02-09T22:25:33.724Z,-0.90
2018-02-09T22:28:01.256Z,-1.20
2018-02-09T22:30:28.768Z,-1.00
2018-02-09T22:32:56.345Z,-1.20
2018-02-09T22:35:23.847Z,-1.10
2018-02-09T22:37:51.357Z,-1.10
2018-02-09T22:40:18.899Z,-1.20
2018-02-09T22:42:47.165Z,-1.10
2018-02-09T22:45:15.462Z,-1.10
2018-02-09T22:47:42.987Z,-1.20
2018-02-09T22:50:10.507Z,-1.10
2018-02-09T22:52:38.026Z,-0.90
2018-02-09T22:55:06.298Z,-1.50
2018-02-09T22:57:34.600Z,-1.60
2018-02-09T23:00:02.110Z,-1.60
2018-02-09T23:02:29.609Z,-1.60
2018-02-09T23:04:57.132Z,-1.60
2018-02-09T23:07:24.647Z,-1.80
2018-02-09T23:09:52.171Z,-1.70
2018-02-09T23:12:20.452Z,-1.60
2018-02-09T23:14:47.971Z,-1.60
2018-02-09T23:22:57.799Z,-1.70
2018-02-09T23:25:25.328Z,-1.70
2018-02-09T23:27:52.829Z,-1.60
2018-02-09T23:30:20.375Z,-1.50
2018-02-09T23:32:47.896Z,-1.40
2018-02-09T23:35:15.430Z,-1.20
2018-02-09T23:37:42.951Z,-1.20
2018-02-09T23:40:10.484Z,-1.20
2018-02-09T23:42:38.753Z,-1.30
2018-02-09T23:45:06.274Z,-1.30
2018-02-09T23:47:34.549Z,-1.20
2018-02-09T23:52:54.667Z,-1.30
2018-02-09T23:55:22.960Z,-1.30
2018-02-09T23:57:50.481Z,-1.30
